createdAt,value
2023-02-27T00:00:12.602Z,236
2023-02-27T00:00:43.757Z,236
2023-02-27T00:01:15.863Z,236
2023-02-27T00:01:47.615Z,236
2023-02-27T00:02:19.717Z,236
2023-02-27T00:02:51.706Z,236
2023-02-27T00:03:23.793Z,236
2023-02-27T00:03:55.662Z,236
2023-02-27T00:04:27.550Z,236
2023-02-27T00:04:59.559Z,236
2023-02-27T00:05:31.669Z,236
2023-02-27T00:06:03.467Z,236
2023-02-27T00:06:35.614Z,236
2023-02-27T00:07:07.545Z,236
2023-02-27T00:07:39.558Z,236
2023-02-27T00:08:11.353Z,236
2023-02-27T00:08:43.575Z,236
2023-02-27T00:09:15.450Z,236
2023-02-27T00:09:47.430Z,236
2023-02-27T00:10:19.282Z,236
2023-02-27T00:10:51.326Z,236
2023-02-27T00:11:23.330Z,236
2023-02-27T00:11:55.164Z,236
2023-02-27T00:12:27.200Z,236
2023-02-27T00:12:59.296Z,236
2023-02-27T00:13:31.300Z,236
2023-02-27T00:14:03.183Z,236
2023-02-27T00:14:35.465Z,236
2023-02-27T00:15:07.593Z,237
2023-02-27T00:15:39.168Z,237
2023-02-27T00:16:12.940Z,237
2023-02-27T00:16:43.045Z,240
2023-02-27T00:17:15.144Z,239
2023-02-27T00:17:47.070Z,240
2023-02-27T00:18:18.906Z,240
2023-02-27T00:18:51.168Z,242
2023-02-27T00:19:22.952Z,242
2023-02-27T00:19:54.970Z,244
2023-02-27T00:20:26.845Z,242
2023-02-27T00:20:59.009Z,241
2023-02-27T00:21:30.929Z,240
2023-02-27T00:22:02.946Z,240
2023-02-27T00:22:34.765Z,241
2023-02-27T00:23:06.826Z,240
2023-02-27T00:23:38.911Z,241
2023-02-27T00:24:10.970Z,241
2023-02-27T00:24:42.840Z,242
2023-02-27T00:25:14.912Z,242
2023-02-27T00:25:46.815Z,241
2023-02-27T00:26:18.735Z,243
2023-02-27T00:26:50.654Z,242
2023-02-27T00:27:22.719Z,242
2023-02-27T00:27:54.589Z,242
2023-02-27T00:28:26.630Z,243
2023-02-27T00:28:58.457Z,242
2023-02-27T00:29:30.745Z,242
2023-02-27T00:30:02.686Z,242
2023-02-27T00:30:34.633Z,242
2023-02-27T00:31:06.552Z,243
2023-02-27T00:31:38.515Z,243
2023-02-27T00:32:10.722Z,243
2023-02-27T00:32:42.465Z,242
2023-02-27T00:33:14.286Z,242
2023-02-27T00:33:46.307Z,242
2023-02-27T00:34:18.368Z,242
2023-02-27T00:34:50.413Z,242
2023-02-27T00:35:22.217Z,242
2023-02-27T00:35:54.225Z,243
2023-02-27T00:36:26.419Z,243
2023-02-27T00:36:58.482Z,243
2023-02-27T00:37:30.143Z,243
2023-02-27T00:38:02.184Z,244
2023-02-27T00:38:34.383Z,243
2023-02-27T00:39:06.250Z,243
2023-02-27T00:39:38.035Z,243
2023-02-27T00:40:10.055Z,243
2023-02-27T00:40:42.194Z,243
2023-02-27T00:41:13.968Z,243
2023-02-27T00:41:45.964Z,243
2023-02-27T00:42:17.979Z,243
2023-02-27T00:42:50.008Z,243
2023-02-27T00:43:21.836Z,243
2023-02-27T00:43:53.898Z,243
2023-02-27T00:44:25.895Z,243
2023-02-27T00:44:57.911Z,243
2023-02-27T00:45:30.111Z,243
2023-02-27T00:46:01.789Z,243
2023-02-27T00:46:33.911Z,243
2023-02-27T00:47:05.860Z,243
2023-02-27T00:47:37.657Z,243
2023-02-27T00:48:09.687Z,243
2023-02-27T00:48:41.745Z,243
2023-02-27T00:49:13.737Z,243
2023-02-27T00:49:45.586Z,243
2023-02-27T00:50:17.695Z,243
2023-02-27T00:50:49.642Z,243
2023-02-27T00:51:21.685Z,243
2023-02-27T00:51:53.510Z,243
2023-02-27T00:52:25.518Z,242
2023-02-27T00:52:57.564Z,243
2023-02-27T00:53:29.601Z,243
2023-02-27T00:54:01.442Z,243
2023-02-27T00:54:34.252Z,243
2023-02-27T00:55:05.517Z,242
2023-02-27T00:55:37.507Z,243
2023-02-27T00:56:09.322Z,242
2023-02-27T00:56:41.420Z,243
2023-02-27T00:57:13.374Z,242
2023-02-27T00:57:45.788Z,242
2023-02-27T00:58:17.313Z,243
2023-02-27T00:58:49.284Z,243
2023-02-27T00:59:21.303Z,243
2023-02-27T00:59:53.349Z,243
2023-02-27T01:00:25.374Z,243
2023-02-27T01:00:57.339Z,242
2023-02-27T01:01:29.346Z,243
2023-02-27T01:02:01.096Z,242
2023-02-27T01:02:33.193Z,242
2023-02-27T01:03:05.177Z,243
2023-02-27T01:03:37.246Z,242
2023-02-27T01:04:08.958Z,242
2023-02-27T01:04:41.102Z,242
2023-02-27T01:05:13.039Z,243
2023-02-27T01:05:45.090Z,243
2023-02-27T01:06:16.927Z,243
2023-02-27T01:06:48.951Z,242
2023-02-27T01:07:21.061Z,243
2023-02-27T01:07:53.041Z,243
2023-02-27T01:08:24.790Z,243
2023-02-27T01:08:56.890Z,243
2023-02-27T01:09:28.882Z,243
2023-02-27T01:10:01.054Z,243
2023-02-27T01:10:32.771Z,234
2023-02-27T01:11:04.931Z,238
2023-02-27T01:11:36.832Z,237
2023-02-27T01:12:09.326Z,237
2023-02-27T01:12:40.768Z,238
2023-02-27T01:13:12.691Z,235
2023-02-27T01:13:44.791Z,235
2023-02-27T01:14:17.098Z,235
2023-02-27T01:14:48.631Z,239
2023-02-27T01:15:20.853Z,238
2023-02-27T01:15:52.686Z,237
2023-02-27T01:16:24.498Z,239
2023-02-27T01:16:56.532Z,238
2023-02-27T01:17:28.525Z,238
2023-02-27T01:18:00.634Z,238
2023-02-27T01:18:32.495Z,238
2023-02-27T01:19:04.440Z,238
2023-02-27T01:19:36.430Z,238
2023-02-27T01:20:08.460Z,238
2023-02-27T01:20:40.388Z,238
2023-02-27T01:21:12.394Z,244
2023-02-27T01:21:44.376Z,239
2023-02-27T01:22:16.429Z,244
2023-02-27T01:22:48.201Z,242
2023-02-27T01:23:20.236Z,243
2023-02-27T01:23:52.275Z,244
2023-02-27T01:24:24.273Z,243
2023-02-27T01:24:56.100Z,241
2023-02-27T01:25:28.166Z,241
2023-02-27T01:26:00.216Z,240
2023-02-27T01:26:32.388Z,241
2023-02-27T01:27:04.071Z,242
2023-02-27T01:27:36.137Z,242
2023-02-27T01:28:08.167Z,241
2023-02-27T01:28:40.111Z,241
2023-02-27T01:29:11.956Z,243
2023-02-27T01:29:43.983Z,244
2023-02-27T01:30:16.198Z,242
2023-02-27T01:30:48.059Z,242
2023-02-27T01:31:19.888Z,242
2023-02-27T01:31:51.984Z,242
2023-02-27T01:32:24.078Z,242
2023-02-27T01:32:55.996Z,241
2023-02-27T01:33:27.971Z,241
2023-02-27T01:33:59.828Z,242
2023-02-27T01:34:34.170Z,241
2023-02-27T01:35:03.925Z,241
2023-02-27T01:35:35.716Z,241
2023-02-27T01:36:07.752Z,241
2023-02-27T01:36:39.775Z,241
2023-02-27T01:37:11.625Z,241
2023-02-27T01:37:43.700Z,241
2023-02-27T01:38:15.676Z,241
2023-02-27T01:38:47.693Z,241
2023-02-27T01:39:19.698Z,241
2023-02-27T01:39:51.983Z,241
2023-02-27T01:40:23.760Z,241
2023-02-27T01:40:55.700Z,241
2023-02-27T01:41:27.914Z,241
2023-02-27T01:41:59.566Z,241
2023-02-27T01:42:31.720Z,242
2023-02-27T01:43:03.744Z,242
2023-02-27T01:43:35.526Z,241
2023-02-27T01:44:07.508Z,241
2023-02-27T01:44:39.522Z,242
2023-02-27T01:45:12.055Z,242
2023-02-27T01:45:43.871Z,242
2023-02-27T01:46:15.365Z,242
2023-02-27T01:46:47.415Z,242
2023-02-27T01:47:19.343Z,242
2023-02-27T01:47:51.735Z,241
2023-02-27T01:48:23.410Z,241
2023-02-27T01:48:55.209Z,241
2023-02-27T01:49:27.294Z,241
2023-02-27T01:49:59.176Z,242
2023-02-27T01:50:31.188Z,242
2023-02-27T01:51:03.420Z,242
2023-02-27T01:51:35.162Z,242
2023-02-27T01:52:07.336Z,242
2023-02-27T01:52:39.031Z,243
2023-02-27T01:53:11.222Z,245
2023-02-27T01:53:43.079Z,243
2023-02-27T01:54:14.940Z,242
2023-02-27T01:54:46.948Z,242
2023-02-27T01:55:19.005Z,242
2023-02-27T01:55:50.988Z,242
2023-02-27T01:56:22.824Z,242
2023-02-27T01:56:54.918Z,242
2023-02-27T01:57:26.915Z,242
2023-02-27T01:57:58.915Z,242
2023-02-27T01:58:30.989Z,243
2023-02-27T01:59:02.883Z,244
2023-02-27T01:59:35.062Z,242
2023-02-27T02:00:07.612Z,242
2023-02-27T02:00:40.081Z,243
2023-02-27T02:01:10.842Z,242
2023-02-27T02:01:42.799Z,242
2023-02-27T02:02:14.671Z,242
2023-02-27T02:02:46.593Z,242
2023-02-27T02:03:18.599Z,242
2023-02-27T02:03:50.776Z,242
2023-02-27T02:04:22.541Z,242
2023-02-27T02:04:54.713Z,242
2023-02-27T02:05:26.537Z,242
2023-02-27T02:05:58.602Z,242
2023-02-27T02:06:30.668Z,242
2023-02-27T02:07:02.441Z,242
2023-02-27T02:07:34.426Z,242
2023-02-27T02:08:06.478Z,243
2023-02-27T02:08:38.278Z,244
2023-02-27T02:09:10.358Z,242
2023-02-27T02:09:42.330Z,241
2023-02-27T02:10:14.587Z,242
2023-02-27T02:10:46.425Z,241
2023-02-27T02:11:18.222Z,242
2023-02-27T02:11:50.274Z,242
2023-02-27T02:12:22.408Z,241
2023-02-27T02:12:54.101Z,241
2023-02-27T02:13:26.151Z,241
2023-02-27T02:13:58.455Z,241
2023-02-27T02:14:30.269Z,241
2023-02-27T02:15:02.186Z,239
2023-02-27T02:15:34.069Z,235
2023-02-27T02:16:06.068Z,235
2023-02-27T02:16:38.148Z,235
2023-02-27T02:17:09.930Z,236
2023-02-27T02:17:42.041Z,238
2023-02-27T02:18:14.051Z,237
2023-02-27T02:18:46.010Z,237
2023-02-27T02:19:17.831Z,238
2023-02-27T02:19:49.871Z,237
2023-02-27T02:20:21.925Z,237
2023-02-27T02:20:53.933Z,237
2023-02-27T02:21:26.060Z,237
2023-02-27T02:21:57.804Z,237
2023-02-27T02:22:29.842Z,237
2023-02-27T02:23:01.872Z,237
2023-02-27T02:23:33.659Z,237
2023-02-27T02:24:05.701Z,237
2023-02-27T02:24:37.704Z,237
2023-02-27T02:25:09.939Z,237
2023-02-27T02:25:41.604Z,237
2023-02-27T02:26:13.624Z,237
2023-02-27T02:26:45.651Z,237
2023-02-27T02:27:17.667Z,237
2023-02-27T02:27:49.478Z,237
2023-02-27T02:28:21.537Z,237
2023-02-27T02:28:53.548Z,237
2023-02-27T02:29:25.614Z,237
2023-02-27T02:29:57.393Z,237
2023-02-27T02:30:29.676Z,237
2023-02-27T02:31:01.593Z,237
2023-02-27T02:31:33.569Z,237
2023-02-27T02:32:05.385Z,237
2023-02-27T02:32:37.364Z,237
2023-02-27T02:33:09.373Z,237
2023-02-27T02:33:41.228Z,237
2023-02-27T02:34:13.275Z,237
2023-02-27T02:34:45.287Z,237
2023-02-27T02:35:17.317Z,237
2023-02-27T02:35:49.166Z,237
2023-02-27T02:36:21.249Z,237
2023-02-27T02:36:53.214Z,237
2023-02-27T02:37:25.217Z,237
2023-02-27T02:37:57.100Z,237
2023-02-27T02:38:29.119Z,237
2023-02-27T02:39:01.173Z,237
2023-02-27T02:39:33.127Z,237
2023-02-27T02:40:04.995Z,237
2023-02-27T02:40:37.054Z,237
2023-02-27T02:41:09.424Z,237
2023-02-27T02:41:41.102Z,237
2023-02-27T02:42:12.909Z,237
2023-02-27T02:42:45.545Z,237
2023-02-27T02:43:17.076Z,237
2023-02-27T02:43:49.077Z,237
2023-02-27T02:44:20.880Z,238
2023-02-27T02:44:52.897Z,238
2023-02-27T02:45:24.986Z,239
2023-02-27T02:45:56.795Z,240
2023-02-27T02:46:28.762Z,240
2023-02-27T02:47:01.177Z,240
2023-02-27T02:47:32.778Z,240
2023-02-27T02:48:04.787Z,239
2023-02-27T02:48:36.622Z,239
2023-02-27T02:49:08.718Z,239
2023-02-27T02:49:40.922Z,239
2023-02-27T02:50:12.735Z,239
2023-02-27T02:50:44.544Z,239
2023-02-27T02:51:16.630Z,239
2023-02-27T02:51:48.696Z,239
2023-02-27T02:52:20.574Z,239
2023-02-27T02:52:52.469Z,239
2023-02-27T02:53:26.760Z,239
2023-02-27T02:53:57.000Z,239
2023-02-27T02:54:28.369Z,239
2023-02-27T02:55:00.543Z,239
2023-02-27T02:55:32.410Z,239
2023-02-27T02:56:04.423Z,239
2023-02-27T02:56:36.252Z,239
2023-02-27T02:57:08.282Z,239
2023-02-27T02:57:40.403Z,239
2023-02-27T02:58:12.376Z,239
2023-02-27T02:58:44.183Z,239
2023-02-27T02:59:16.188Z,239
2023-02-27T02:59:48.220Z,239
2023-02-27T03:00:20.643Z,239
2023-02-27T03:00:52.124Z,239
2023-02-27T03:01:24.218Z,239
2023-02-27T03:01:56.147Z,239
2023-02-27T03:02:28.231Z,239
2023-02-27T03:03:00.041Z,239
2023-02-27T03:03:32.037Z,239
2023-02-27T03:04:04.233Z,239
2023-02-27T03:04:36.222Z,239
2023-02-27T03:05:08.012Z,239
2023-02-27T03:05:39.967Z,239
2023-02-27T03:06:11.981Z,239
2023-02-27T03:06:44.013Z,239
2023-02-27T03:07:15.878Z,239
2023-02-27T03:07:47.962Z,239
2023-02-27T03:08:19.941Z,239
2023-02-27T03:08:51.897Z,239
2023-02-27T03:09:23.728Z,239
2023-02-27T03:09:55.764Z,239
2023-02-27T03:10:27.861Z,239
2023-02-27T03:10:59.680Z,239
2023-02-27T03:11:31.672Z,239
2023-02-27T03:12:03.745Z,239
2023-02-27T03:12:35.777Z,239
2023-02-27T03:13:07.630Z,239
2023-02-27T03:13:39.603Z,239
2023-02-27T03:14:11.860Z,239
2023-02-27T03:14:43.663Z,239
2023-02-27T03:15:15.633Z,239
2023-02-27T03:15:47.553Z,239
2023-02-27T03:16:19.771Z,239
2023-02-27T03:16:51.733Z,239
2023-02-27T03:17:23.428Z,239
2023-02-27T03:17:55.439Z,239
2023-02-27T03:18:27.508Z,239
2023-02-27T03:18:59.518Z,239
2023-02-27T03:19:31.321Z,239
2023-02-27T03:20:03.398Z,239
2023-02-27T03:20:35.396Z,239
2023-02-27T03:21:07.206Z,239
2023-02-27T03:21:39.240Z,239
2023-02-27T03:22:11.288Z,239
2023-02-27T03:22:43.376Z,239
2023-02-27T03:23:15.186Z,239
2023-02-27T03:23:47.168Z,239
2023-02-27T03:24:19.275Z,239
2023-02-27T03:24:51.216Z,239
2023-02-27T03:25:23.061Z,239
2023-02-27T03:25:57.160Z,239
2023-02-27T03:26:27.190Z,239
2023-02-27T03:26:59.267Z,239
2023-02-27T03:27:31.118Z,239
2023-02-27T03:28:03.009Z,239
2023-02-27T03:28:35.305Z,239
2023-02-27T03:29:07.068Z,239
2023-02-27T03:29:38.875Z,239
2023-02-27T03:30:11.221Z,239
2023-02-27T03:30:43.016Z,239
2023-02-27T03:31:15.048Z,239
2023-02-27T03:31:47.005Z,239
2023-02-27T03:32:18.921Z,239
2023-02-27T03:32:50.925Z,239
2023-02-27T03:33:22.878Z,239
2023-02-27T03:33:54.696Z,239
2023-02-27T03:34:26.740Z,239
2023-02-27T03:34:58.835Z,239
2023-02-27T03:35:30.892Z,239
2023-02-27T03:36:02.631Z,239
2023-02-27T03:36:35.332Z,239
2023-02-27T03:37:06.689Z,239
2023-02-27T03:37:38.701Z,239
2023-02-27T03:38:10.674Z,239
2023-02-27T03:38:42.630Z,239
2023-02-27T03:39:14.556Z,239
2023-02-27T03:39:46.618Z,239
2023-02-27T03:40:18.478Z,239
2023-02-27T03:40:50.595Z,239
2023-02-27T03:41:22.545Z,239
2023-02-27T03:41:54.363Z,239
2023-02-27T03:42:26.421Z,239
2023-02-27T03:42:58.450Z,239
2023-02-27T03:43:30.623Z,239
2023-02-27T03:44:02.261Z,239
2023-02-27T03:44:34.285Z,239
2023-02-27T03:45:06.681Z,239
2023-02-27T03:45:38.399Z,239
2023-02-27T03:46:10.216Z,239
2023-02-27T03:46:42.446Z,239
2023-02-27T03:47:14.255Z,231
2023-02-27T03:47:46.265Z,231
2023-02-27T03:48:18.108Z,231
2023-02-27T03:48:50.285Z,231
2023-02-27T03:49:22.269Z,232
2023-02-27T03:49:54.167Z,232
2023-02-27T03:50:26.072Z,232
2023-02-27T03:50:58.118Z,231
2023-02-27T03:51:30.173Z,231
2023-02-27T03:52:01.929Z,232
2023-02-27T03:52:34.007Z,232
2023-02-27T03:53:05.964Z,232
2023-02-27T03:53:38.004Z,232
2023-02-27T03:54:09.845Z,232
2023-02-27T03:54:41.888Z,232
2023-02-27T03:55:13.900Z,232
2023-02-27T03:55:46.118Z,232
2023-02-27T03:56:17.849Z,231
2023-02-27T03:56:49.882Z,232
2023-02-27T03:57:22.076Z,232
2023-02-27T03:57:53.931Z,232
2023-02-27T03:58:25.863Z,232
2023-02-27T03:58:57.809Z,232
2023-02-27T03:59:29.825Z,232
2023-02-27T04:00:02.015Z,232
2023-02-27T04:00:33.713Z,232
2023-02-27T04:01:05.606Z,232
2023-02-27T04:01:37.804Z,232
2023-02-27T04:02:09.858Z,232
2023-02-27T04:02:41.782Z,232
2023-02-27T04:03:13.638Z,232
2023-02-27T04:03:45.563Z,232
2023-02-27T04:04:17.699Z,232
2023-02-27T04:04:49.616Z,232
2023-02-27T04:05:21.673Z,231
2023-02-27T04:05:53.576Z,231
2023-02-27T04:06:25.743Z,231
2023-02-27T04:06:57.467Z,231
2023-02-27T04:07:29.556Z,231
2023-02-27T04:08:01.391Z,231
2023-02-27T04:08:33.408Z,231
2023-02-27T04:09:05.218Z,231
2023-02-27T04:09:37.315Z,231
2023-02-27T04:10:09.304Z,231
2023-02-27T04:10:41.177Z,231
2023-02-27T04:11:13.163Z,230
2023-02-27T04:11:45.197Z,230
2023-02-27T04:12:17.226Z,230
2023-02-27T04:12:49.080Z,230
2023-02-27T04:13:21.162Z,230
2023-02-27T04:13:53.092Z,230
2023-02-27T04:14:25.157Z,230
2023-02-27T04:14:57.017Z,230
2023-02-27T04:15:29.158Z,230
2023-02-27T04:16:01.148Z,231
2023-02-27T04:16:33.039Z,231
2023-02-27T04:17:04.908Z,231
2023-02-27T04:17:36.904Z,231
2023-02-27T04:18:09.533Z,231
2023-02-27T04:18:40.998Z,231
2023-02-27T04:19:12.987Z,231
2023-02-27T04:19:44.853Z,231
2023-02-27T04:20:16.849Z,231
2023-02-27T04:20:48.909Z,231
2023-02-27T04:21:20.895Z,230
2023-02-27T04:21:52.762Z,230
2023-02-27T04:22:24.799Z,230
2023-02-27T04:22:56.824Z,230
2023-02-27T04:23:28.673Z,230
2023-02-27T04:24:00.770Z,230
2023-02-27T04:24:32.696Z,230
2023-02-27T04:25:04.697Z,230
2023-02-27T04:25:36.514Z,230
2023-02-27T04:26:09.001Z,230
2023-02-27T04:26:40.682Z,230
2023-02-27T04:27:12.692Z,230
2023-02-27T04:27:44.428Z,230
2023-02-27T04:28:16.581Z,230
2023-02-27T04:28:48.488Z,230
2023-02-27T04:29:20.594Z,230
2023-02-27T04:29:52.377Z,230
2023-02-27T04:30:24.569Z,230
2023-02-27T04:30:56.529Z,230
2023-02-27T04:31:28.854Z,230
2023-02-27T04:32:00.574Z,230
2023-02-27T04:32:32.524Z,230
2023-02-27T04:33:04.329Z,230
2023-02-27T04:33:36.349Z,230
2023-02-27T04:34:08.182Z,230
2023-02-27T04:34:40.347Z,230
2023-02-27T04:35:12.265Z,230
2023-02-27T04:35:44.273Z,230
2023-02-27T04:36:16.100Z,230
2023-02-27T04:36:48.138Z,230
2023-02-27T04:37:20.183Z,230
2023-02-27T04:37:52.230Z,230
2023-02-27T04:38:24.184Z,230
2023-02-27T04:38:56.068Z,230
2023-02-27T04:39:28.053Z,230
2023-02-27T04:40:00.145Z,230
2023-02-27T04:40:32.070Z,230
2023-02-27T04:41:03.981Z,230
2023-02-27T04:41:36.104Z,230
2023-02-27T04:42:07.938Z,230
2023-02-27T04:42:39.865Z,230
2023-02-27T04:43:11.993Z,230
2023-02-27T04:43:44.042Z,230
2023-02-27T04:44:15.924Z,230
2023-02-27T04:44:47.747Z,230
2023-02-27T04:45:20.068Z,230
2023-02-27T04:45:51.993Z,230
2023-02-27T04:46:23.805Z,230
2023-02-27T04:46:55.876Z,230
2023-02-27T04:47:27.835Z,230
2023-02-27T04:47:59.740Z,230
2023-02-27T04:48:31.544Z,230
2023-02-27T04:49:03.601Z,230
2023-02-27T04:49:35.613Z,230
2023-02-27T04:50:07.653Z,230
2023-02-27T04:50:39.498Z,230
2023-02-27T04:51:11.627Z,230
2023-02-27T04:51:43.562Z,230
2023-02-27T04:52:15.570Z,230
2023-02-27T04:52:47.555Z,230
2023-02-27T04:53:19.466Z,230
2023-02-27T04:53:51.464Z,230
2023-02-27T04:54:23.533Z,230
2023-02-27T04:54:55.456Z,230
2023-02-27T04:55:27.352Z,230
2023-02-27T04:55:59.370Z,230
2023-02-27T04:56:31.403Z,230
2023-02-27T04:57:03.261Z,230
2023-02-27T04:57:35.265Z,230
2023-02-27T04:58:07.286Z,230
2023-02-27T04:58:39.343Z,230
2023-02-27T04:59:11.211Z,230
2023-02-27T04:59:43.178Z,230
2023-02-27T05:00:15.364Z,230
2023-02-27T05:00:47.043Z,230
2023-02-27T05:01:19.074Z,230
2023-02-27T05:01:51.304Z,230
2023-02-27T05:02:23.295Z,230
2023-02-27T05:02:55.171Z,230
2023-02-27T05:03:26.959Z,230
2023-02-27T05:04:00.583Z,230
2023-02-27T05:04:31.143Z,230
2023-02-27T05:05:03.058Z,230
2023-02-27T05:05:34.934Z,230
2023-02-27T05:06:06.916Z,230
2023-02-27T05:06:38.990Z,230
2023-02-27T05:07:10.858Z,230
2023-02-27T05:07:42.810Z,230
2023-02-27T05:08:14.804Z,230
2023-02-27T05:08:46.848Z,230
2023-02-27T05:09:18.718Z,230
2023-02-27T05:09:50.960Z,230
2023-02-27T05:10:22.787Z,230
2023-02-27T05:10:54.830Z,230
2023-02-27T05:11:26.977Z,230
2023-02-27T05:11:58.741Z,230
2023-02-27T05:12:30.790Z,230
2023-02-27T05:13:02.703Z,230
2023-02-27T05:13:34.656Z,230
2023-02-27T05:14:06.546Z,230
2023-02-27T05:14:38.568Z,230
2023-02-27T05:15:10.831Z,230
2023-02-27T05:15:42.462Z,230
2023-02-27T05:16:14.474Z,230
2023-02-27T05:16:46.580Z,229
2023-02-27T05:17:18.612Z,229
2023-02-27T05:17:50.472Z,230
2023-02-27T05:18:22.469Z,230
2023-02-27T05:18:54.445Z,230
2023-02-27T05:19:26.442Z,230
2023-02-27T05:19:58.253Z,230
2023-02-27T05:20:30.325Z,230
2023-02-27T05:21:02.342Z,230
2023-02-27T05:21:34.355Z,230
2023-02-27T05:22:06.401Z,230
2023-02-27T05:22:38.263Z,230
2023-02-27T05:23:10.439Z,230
2023-02-27T05:23:42.270Z,230
2023-02-27T05:24:14.125Z,229
2023-02-27T05:24:46.105Z,229
2023-02-27T05:25:18.186Z,229
2023-02-27T05:25:50.442Z,229
2023-02-27T05:26:22.032Z,229
2023-02-27T05:26:54.057Z,230
2023-02-27T05:27:26.093Z,230
2023-02-27T05:27:58.081Z,230
2023-02-27T05:28:29.919Z,230
2023-02-27T05:29:01.946Z,230
2023-02-27T05:29:34.590Z,230
2023-02-27T05:30:06.322Z,230
2023-02-27T05:30:37.875Z,230
2023-02-27T05:31:09.884Z,230
2023-02-27T05:31:42.009Z,230
2023-02-27T05:32:13.857Z,230
2023-02-27T05:32:45.953Z,230
2023-02-27T05:33:17.770Z,230
2023-02-27T05:33:49.815Z,230
2023-02-27T05:34:21.792Z,230
2023-02-27T05:34:53.687Z,229
2023-02-27T05:35:28.691Z,229
2023-02-27T05:35:57.787Z,229
2023-02-27T05:36:29.552Z,229
2023-02-27T05:37:01.669Z,228
2023-02-27T05:37:33.620Z,228
2023-02-27T05:38:05.626Z,228
2023-02-27T05:38:37.519Z,229
2023-02-27T05:39:09.471Z,229
2023-02-27T05:39:41.508Z,229
2023-02-27T05:40:13.551Z,229
2023-02-27T05:40:45.385Z,229
2023-02-27T05:41:17.394Z,229
2023-02-27T05:41:49.440Z,228
2023-02-27T05:42:21.492Z,227
2023-02-27T05:42:53.312Z,227
2023-02-27T05:43:25.318Z,228
2023-02-27T05:43:57.343Z,228
2023-02-27T05:44:29.365Z,227
2023-02-27T05:45:01.605Z,228
2023-02-27T05:45:33.304Z,224
2023-02-27T05:46:05.384Z,227
2023-02-27T05:46:37.132Z,227
2023-02-27T05:47:09.171Z,227
2023-02-27T05:47:41.284Z,227
2023-02-27T05:48:13.182Z,227
2023-02-27T05:48:45.023Z,227
2023-02-27T05:49:17.162Z,227
2023-02-27T05:49:49.111Z,227
2023-02-27T05:50:21.201Z,227
2023-02-27T05:50:52.966Z,228
2023-02-27T05:51:25.301Z,228
2023-02-27T05:51:57.336Z,228
2023-02-27T05:52:29.043Z,228
2023-02-27T05:53:00.956Z,228
2023-02-27T05:53:32.882Z,228
2023-02-27T05:54:04.889Z,228
2023-02-27T05:54:36.931Z,228
2023-02-27T05:55:08.808Z,228
2023-02-27T05:55:40.866Z,228
2023-02-27T05:56:12.921Z,228
2023-02-27T05:56:44.856Z,228
2023-02-27T05:57:16.722Z,228
2023-02-27T05:57:48.697Z,227
2023-02-27T05:58:20.913Z,227
2023-02-27T05:58:52.824Z,227
2023-02-27T05:59:24.722Z,227
2023-02-27T05:59:56.643Z,227
2023-02-27T06:00:28.897Z,227
2023-02-27T06:01:00.854Z,227
2023-02-27T06:01:32.574Z,227
2023-02-27T06:02:04.602Z,227
2023-02-27T06:02:36.694Z,227
2023-02-27T06:03:08.701Z,227
2023-02-27T06:03:40.831Z,227
2023-02-27T06:04:12.534Z,227
2023-02-27T06:04:44.500Z,227
2023-02-27T06:05:16.619Z,227
2023-02-27T06:05:48.394Z,227
2023-02-27T06:06:20.544Z,227
2023-02-27T06:06:52.497Z,227
2023-02-27T06:07:24.455Z,227
2023-02-27T06:07:56.325Z,226
2023-02-27T06:08:28.316Z,227
2023-02-27T06:09:00.358Z,226
2023-02-27T06:09:32.402Z,225
2023-02-27T06:10:04.220Z,225
2023-02-27T06:10:36.291Z,226
2023-02-27T06:11:08.242Z,227
2023-02-27T06:11:40.076Z,227
2023-02-27T06:12:12.134Z,227
2023-02-27T06:12:44.172Z,227
2023-02-27T06:13:16.193Z,227
2023-02-27T06:13:47.972Z,227
2023-02-27T06:14:20.080Z,227
2023-02-27T06:14:52.114Z,227
2023-02-27T06:15:24.234Z,227
2023-02-27T06:15:55.947Z,227
2023-02-27T06:16:28.271Z,227
2023-02-27T06:17:00.362Z,227
2023-02-27T06:17:32.032Z,227
2023-02-27T06:18:03.866Z,227
2023-02-27T06:18:35.931Z,227
2023-02-27T06:19:07.882Z,227
2023-02-27T06:19:39.907Z,227
2023-02-27T06:20:11.790Z,227
2023-02-27T06:20:43.848Z,227
2023-02-27T06:21:15.805Z,227
2023-02-27T06:21:47.857Z,227
2023-02-27T06:22:19.721Z,227
2023-02-27T06:22:51.730Z,227
2023-02-27T06:23:23.717Z,227
2023-02-27T06:23:55.724Z,227
2023-02-27T06:24:27.561Z,227
2023-02-27T06:24:59.611Z,227
2023-02-27T06:25:31.655Z,227
2023-02-27T06:26:03.708Z,227
2023-02-27T06:26:35.576Z,227
2023-02-27T06:27:07.541Z,227
2023-02-27T06:27:39.571Z,227
2023-02-27T06:28:11.589Z,227
2023-02-27T06:28:43.424Z,227
2023-02-27T06:29:15.702Z,227
2023-02-27T06:29:47.548Z,227
2023-02-27T06:30:19.758Z,227
2023-02-27T06:30:51.630Z,227
2023-02-27T06:31:23.327Z,227
2023-02-27T06:31:55.370Z,227
2023-02-27T06:32:27.411Z,227
2023-02-27T06:32:59.253Z,227
2023-02-27T06:33:31.276Z,227
2023-02-27T06:34:03.273Z,227
2023-02-27T06:34:35.301Z,227
2023-02-27T06:35:07.144Z,227
2023-02-27T06:35:39.295Z,227
2023-02-27T06:36:11.255Z,227
2023-02-27T06:36:43.359Z,227
2023-02-27T06:37:15.181Z,227
2023-02-27T06:37:47.409Z,227
2023-02-27T06:38:19.179Z,227
2023-02-27T06:38:51.096Z,227
2023-02-27T06:39:23.243Z,227
2023-02-27T06:39:54.997Z,227
2023-02-27T06:40:27.096Z,227
2023-02-27T06:40:59.027Z,227
2023-02-27T06:41:30.978Z,227
2023-02-27T06:42:02.946Z,227
2023-02-27T06:42:34.940Z,227
2023-02-27T06:43:06.811Z,227
2023-02-27T06:43:38.845Z,227
2023-02-27T06:44:11.056Z,227
2023-02-27T06:44:43.030Z,227
2023-02-27T06:45:14.839Z,227
2023-02-27T06:45:46.778Z,227
2023-02-27T06:46:19.024Z,227
2023-02-27T06:46:50.950Z,227
2023-02-27T06:47:22.630Z,227
2023-02-27T06:47:54.629Z,227
2023-02-27T06:48:26.726Z,227
2023-02-27T06:48:58.708Z,227
2023-02-27T06:49:30.723Z,227
2023-02-27T06:50:02.678Z,227
2023-02-27T06:50:34.759Z,227
2023-02-27T06:51:06.708Z,227
2023-02-27T06:51:38.450Z,227
2023-02-27T06:52:10.641Z,227
2023-02-27T06:52:42.546Z,227
2023-02-27T06:53:14.744Z,227
2023-02-27T06:53:46.530Z,227
2023-02-27T06:54:18.561Z,227
2023-02-27T06:54:50.485Z,227
2023-02-27T06:55:22.492Z,227
2023-02-27T06:55:54.285Z,227
2023-02-27T06:56:26.597Z,227
2023-02-27T06:56:58.301Z,227
2023-02-27T06:57:30.401Z,227
2023-02-27T06:58:02.247Z,227
2023-02-27T06:58:34.200Z,227
2023-02-27T06:59:06.253Z,227
2023-02-27T06:59:38.231Z,227
2023-02-27T07:00:10.420Z,227
2023-02-27T07:00:42.139Z,227
2023-02-27T07:01:14.232Z,227
2023-02-27T07:01:46.095Z,227
2023-02-27T07:02:18.027Z,227
2023-02-27T07:02:50.089Z,227
2023-02-27T07:03:22.073Z,227
2023-02-27T07:03:54.383Z,227
2023-02-27T07:04:25.956Z,227
2023-02-27T07:04:58.102Z,227
2023-02-27T07:05:29.996Z,227
2023-02-27T07:06:01.840Z,227
2023-02-27T07:07:32.485Z,227
2023-02-27T07:07:34.896Z,227
2023-02-27T07:07:38.794Z,227
2023-02-27T07:08:09.732Z,227
2023-02-27T07:09:01.294Z,227
2023-02-27T07:09:13.769Z,227
2023-02-27T07:09:45.810Z,227
2023-02-27T07:10:17.685Z,227
2023-02-27T07:10:49.714Z,227
2023-02-27T07:11:21.770Z,227
2023-02-27T07:11:53.721Z,227
2023-02-27T07:12:25.536Z,227
2023-02-27T07:12:57.697Z,227
2023-02-27T07:13:29.607Z,227
2023-02-27T07:14:01.747Z,227
2023-02-27T07:14:33.458Z,227
2023-02-27T07:15:06.075Z,227
2023-02-27T07:15:37.552Z,227
2023-02-27T07:16:09.755Z,227
2023-02-27T07:16:41.628Z,227
2023-02-27T07:17:13.513Z,227
2023-02-27T07:17:45.554Z,227
2023-02-27T07:18:17.689Z,227
2023-02-27T07:18:49.518Z,227
2023-02-27T07:19:21.324Z,227
2023-02-27T07:19:53.336Z,227
2023-02-27T07:20:25.517Z,227